No data was retrieved for https://query.yahooapis.com/v1/public/yql?q=select+%2A+from+weather.forecast+where+woeid%3D973505&format=xml&u=c


Lesvos Island / Mitilini / Pligoni / SV8DTD



Thunder radar more information blitzortung!


Rain radar more information rain snow radar


Visit our other weather sites:

Template documentation
and downloads

And another site



No particular awareness of the weather is required.    There are no Weather-warnings

Nearby METAR Reports

   
EHVK - Volkel Rnlafb, Netherlands
Distance from station: SW 18 km
Updated: Tue-Sep-2020 22:25
Overcast  
Overcast  
   Wind: South 9.3 km/h
Wind: South 9.3 km/h
Temperature: 15°C
Dew Point: 11°C
Humidity: 77%
Barometer: 1016 hPa
Clouds: Overcast
Visibility: More than 10 km
Cloud details: Overcast 3000 ft
EHVK 291925Z AUTO 18005KT 9999 OVC030 15/11 Q1016 BLU
EDLV - Niederrhein, Germany
Distance from station: SE 25 km
Updated: Tue-Sep-2020 22:20
Mostly Cloudy  
Mostly Cloudy  
   Wind: SE 7.4 km/h
Wind: SE 7.4 km/h
Temperature: 13°C
Dew Point: 10°C
Humidity: 82%
Barometer: 1017 hPa
Clouds: Mostly Cloudy
Visibility: More than 10 km
Cloud details: Mostly Cloudy 4200 ft
EDLV 291920Z 14004KT 9999 BKN042 13/10 Q1017
EHDL - Deelen Rnlafb, Netherlands
Distance from station: N 35 km
Updated: Tue-Sep-2020 22:25
Mostly Cloudy  
Mostly Cloudy  
   Wind: varies 3.7 km/h
Wind: varies 3.7 km/h
Temperature: 14°C
Dew Point: 13°C
Humidity: 94%
Barometer: 1016 hPa
Clouds: Mostly Cloudy
Visibility: More than 10 km
Cloud details: Few Clouds 3600 ft,
Mostly Cloudy 4300 ft,
Mostly Cloudy 4900 ft
EHDL 291925Z AUTO VRB02KT 9999 FEW036 BKN043 BKN049 14/13 Q1016 BLU
EHEH - Eindhoven Rnlafb, Netherlands
Distance from station: SW 48 km
Updated: Tue-Sep-2020 22:25
Overcast  
Overcast  
   Wind: South 9.3 km/h
Wind: South 9.3 km/h
Temperature: 17°C
Dew Point: 14°C
Humidity: 83%
Barometer: 1016 hPa
Clouds: Overcast
Visibility: More than 10 km
Cloud details: Few Clouds 1600 ft,
Overcast 2000 ft
EHEH 291925Z AUTO 19005KT 9999 FEW016 OVC020 17/14 Q1016 WHT TEMPO SCT017 BKN030
EHGR - Gilze-Rijen Rnla, Netherlands
Distance from station: WSW 70 km
Updated: Tue-Sep-2020 22:29
Light Rain, Overcast  
Light Rain, Overcast  
   Wind: South 11.1 km/h
Wind: South 11.1 km/h
Temperature: 17°C
Dew Point: 14°C
Humidity: 83%
Barometer: 1016 hPa
Clouds: Overcast
Visibility: More than 10 km
Cloud details: Few Clouds 1500 ft,
Mostly Cloudy 2200 ft,
Overcast 3800 ft
EHGR 291929Z AUTO 19006KT 160V220 9999 -RA FEW015CB BKN022 OVC038 17/14 Q1016 WHT
EBBL - Kleine-Brogel(Ba, Belgium
Distance from station: SSW 71 km
Updated: Tue-Sep-2020 21:55
Overcast  
Overcast  
   Wind: SSW 7.4 km/h
Wind: SSW 7.4 km/h
Temperature: 16°C
Dew Point: 14°C
Humidity: 88%
Barometer: 1016 hPa
Clouds: Overcast
Visibility: More than 10 km
Cloud details: Mostly Cloudy 2400 ft,
Overcast 4000 ft
EBBL 291855Z 21004KT 9999 BKN024 OVC040 16/14 Q1016 WHT BLU TEMPO WHT

Script developed by  Saratoga-weather.org Adapted for the template by  Weerstation Leuven

You find our weather info also at:

European Weather Network

Citizen Weather Observer Program (CWOP)

Equipment we use:

Weather-station
Davis VP2

Weather-program
Meteohub

Davis VP2

Meteohub